TimeEST,TemperatureF,Dew PointF,Humidity,Sea Level PressureIn,VisibilityMPH,Wind Direction,Wind SpeedMPH,Gust SpeedMPH,PrecipitationIn,Events,Conditions,WindDirDegrees,DateUTC
12:15 AM,26.6,24.8,93,29.89,10.0,Calm,Calm,-,N/A,,Unknown,0,2012-12-29 05:15:00
12:35 AM,26.6,24.8,93,29.87,10.0,East,3.5,-,N/A,,Unknown,90,2012-12-29 05:35:00
12:55 AM,26.6,24.8,93,29.86,10.0,East,6.9,-,N/A,,Unknown,100,2012-12-29 05:55:00
1:15 AM,28.4,26.6,93,29.85,10.0,ESE,6.9,-,N/A,,Unknown,110,2012-12-29 06:15:00
1:35 AM,28.4,26.6,93,29.85,10.0,Calm,Calm,-,N/A,,Unknown,0,2012-12-29 06:35:00
1:55 AM,30.2,26.6,86,29.86,10.0,South,10.4,-,N/A,,Unknown,170,2012-12-29 06:55:00
2:15 AM,30.2,28.4,93,29.85,4.0,South,9.2,17.3,N/A,,Unknown,170,2012-12-29 07:15:00
2:35 AM,28.4,28.4,100,29.85,2.5,SSE,3.5,-,N/A,,Unknown,160,2012-12-29 07:35:00
2:55 AM,28.4,28.4,100,29.84,2.5,SSE,5.8,-,N/A,,Unknown,160,2012-12-29 07:55:00
3:15 AM,28.4,28.4,100,29.83,1.2,SE,4.6,-,N/A,,Unknown,130,2012-12-29 08:15:00
3:35 AM,28.4,28.4,100,29.83,1.0,Calm,Calm,-,N/A,,Unknown,0,2012-12-29 08:35:00
3:55 AM,28.4,28.4,100,29.81,1.8,ESE,5.8,-,0.01,,Unknown,120,2012-12-29 08:55:00
4:15 AM,28.4,28.4,100,29.78,3.0,East,5.8,-,N/A,,Unknown,100,2012-12-29 09:15:00
4:35 AM,28.4,28.4,100,29.76,1.8,East,4.6,-,N/A,,Unknown,100,2012-12-29 09:35:00
4:55 AM,28.4,28.4,100,29.74,1.8,ESE,3.5,-,0.01,,Unknown,110,2012-12-29 09:55:00
5:15 AM,28.4,28.4,100,29.72,1.8,East,4.6,-,N/A,,Unknown,100,2012-12-29 10:15:00
5:35 AM,28.4,28.4,100,29.71,3.0,Calm,Calm,-,0.01,,Unknown,0,2012-12-29 10:35:00
5:55 AM,28.4,28.4,100,29.70,1.5,ESE,6.9,-,0.01,,Unknown,120,2012-12-29 10:55:00
6:15 AM,26.6,26.6,100,29.68,2.0,ESE,8.1,-,0.01,,Unknown,120,2012-12-29 11:15:00
6:35 AM,26.6,26.6,100,29.67,2.0,ESE,6.9,-,0.01,,Unknown,110,2012-12-29 11:35:00
6:55 AM,26.6,26.6,100,29.67,1.5,ESE,4.6,-,0.01,,Unknown,120,2012-12-29 11:55:00
7:15 AM,26.6,26.6,100,29.65,2.0,ESE,5.8,-,0.01,,Unknown,110,2012-12-29 12:15:00
7:35 AM,28.4,28.4,100,29.66,2.5,SE,6.9,-,0.01,,Unknown,130,2012-12-29 12:35:00
7:55 AM,28.4,28.4,100,29.65,1.8,SE,8.1,-,0.01,,Unknown,130,2012-12-29 12:55:00
8:15 AM,28.4,28.4,100,29.64,0.2,SE,5.8,-,0.01,,Unknown,140,2012-12-29 13:15:00
8:35 AM,28.4,28.4,100,29.64,1.0,SSE,3.5,-,0.02,,Unknown,150,2012-12-29 13:35:00
8:55 AM,28.4,28.4,100,29.63,1.0,SE,4.6,-,0.02,,Unknown,140,2012-12-29 13:55:00
9:15 AM,28.4,28.4,100,29.62,1.5,SSE,3.5,-,0.01,,Unknown,150,2012-12-29 14:15:00
9:35 AM,28.4,28.4,100,29.62,4.0,SSE,8.1,-,0.01,,Unknown,160,2012-12-29 14:35:00
9:55 AM,30.2,30.2,100,29.61,4.0,SSE,8.1,-,0.02,,Unknown,160,2012-12-29 14:55:00
10:15 AM,30.2,30.2,100,29.61,7.0,SSE,10.4,-,N/A,,Unknown,160,2012-12-29 15:15:00
10:35 AM,30.2,30.2,100,29.61,1.2,South,8.1,-,N/A,,Unknown,170,2012-12-29 15:35:00
10:55 AM,30.2,30.2,100,29.61,1.2,South,5.8,-,N/A,,Unknown,180,2012-12-29 15:55:00
11:15 AM,30.2,30.2,100,29.60,2.5,Calm,Calm,-,N/A,,Unknown,0,2012-12-29 16:15:00
11:35 AM,30.2,30.2,100,29.59,2.0,Calm,Calm,-,N/A,,Unknown,0,2012-12-29 16:35:00
11:55 AM,30.2,30.2,100,29.58,3.0,Calm,Calm,-,N/A,,Unknown,0,2012-12-29 16:55:00
12:15 PM,30.2,30.2,100,29.58,4.0,Calm,Calm,-,N/A,,Unknown,0,2012-12-29 17:15:00
12:35 PM,30.2,30.2,100,29.57,2.5,West,8.1,-,N/A,,Unknown,270,2012-12-29 17:35:00
12:55 PM,30.2,30.2,100,29.57,1.8,West,9.2,-,0.01,,Unknown,270,2012-12-29 17:55:00
1:15 PM,30.2,30.2,100,29.58,3.0,West,10.4,-,N/A,,Unknown,270,2012-12-29 18:15:00
1:35 PM,30.2,30.2,100,29.58,2.5,West,9.2,-,N/A,,Unknown,280,2012-12-29 18:35:00
1:55 PM,30.2,30.2,100,29.59,3.0,WNW,8.1,-,N/A,,Unknown,290,2012-12-29 18:55:00
2:15 PM,30.2,30.2,100,29.60,5.0,WNW,6.9,-,N/A,,Unknown,300,2012-12-29 19:15:00
2:35 PM,30.2,30.2,100,29.61,7.0,NW,11.5,16.1,N/A,,Unknown,310,2012-12-29 19:35:00
2:55 PM,30.2,30.2,100,29.62,10.0,WNW,9.2,-,N/A,,Unknown,300,2012-12-29 19:55:00
3:15 PM,30.2,30.2,100,29.63,7.0,WNW,6.9,-,N/A,,Unknown,300,2012-12-29 20:15:00
3:35 PM,30.2,30.2,100,29.64,7.0,NW,8.1,-,N/A,,Unknown,310,2012-12-29 20:35:00
3:55 PM,30.2,30.2,100,29.65,10.0,WNW,9.2,-,N/A,,Unknown,290,2012-12-29 20:55:00
4:15 PM,28.4,28.4,100,29.67,10.0,WNW,9.2,19.6,N/A,,Unknown,290,2012-12-29 21:15:00
4:35 PM,28.4,28.4,100,29.67,10.0,WNW,8.1,-,N/A,,Unknown,300,2012-12-29 21:35:00
4:55 PM,28.4,28.4,100,29.69,10.0,WNW,9.2,-,N/A,,Unknown,300,2012-12-29 21:55:00
5:15 PM,28.4,28.4,100,29.70,10.0,WNW,10.4,-,N/A,,Unknown,290,2012-12-29 22:15:00
5:35 PM,28.4,28.4,100,29.71,10.0,WNW,8.1,-,N/A,,Unknown,290,2012-12-29 22:35:00
6:15 PM,28.4,28.4,100,29.73,10.0,West,5.8,-,N/A,,Unknown,280,2012-12-29 23:15:00
6:35 PM,28.4,28.4,100,29.74,7.0,WNW,6.9,-,N/A,,Unknown,290,2012-12-29 23:35:00
6:55 PM,28.4,28.4,100,29.75,10.0,WNW,8.1,-,N/A,,Unknown,300,2012-12-29 23:55:00
7:15 PM,30.2,30.2,100,29.77,10.0,WNW,10.4,16.1,N/A,,Unknown,300,2012-12-30 00:15:00
7:35 PM,30.2,28.4,93,29.77,10.0,NW,11.5,16.1,N/A,,Unknown,310,2012-12-30 00:35:00
7:55 PM,30.2,28.4,93,29.78,10.0,NW,15.0,20.7,N/A,,Unknown,310,2012-12-30 00:55:00
8:15 PM,30.2,28.4,93,29.79,10.0,NW,8.1,-,N/A,,Unknown,310,2012-12-30 01:15:00
8:35 PM,28.4,28.4,100,29.80,10.0,NW,12.7,16.1,N/A,,Unknown,320,2012-12-30 01:35:00
8:55 PM,28.4,28.4,100,29.80,10.0,NW,9.2,16.1,N/A,,Unknown,320,2012-12-30 01:55:00
9:15 PM,28.4,28.4,100,29.81,10.0,NW,8.1,16.1,N/A,,Unknown,320,2012-12-30 02:15:00
9:35 PM,28.4,28.4,100,29.81,10.0,WNW,4.6,-,N/A,,Unknown,300,2012-12-30 02:35:00
9:55 PM,28.4,28.4,100,29.82,10.0,WNW,4.6,-,N/A,,Unknown,290,2012-12-30 02:55:00
10:15 PM,28.4,28.4,100,29.83,10.0,WNW,8.1,-,N/A,,Unknown,300,2012-12-30 03:15:00
10:35 PM,28.4,28.4,100,29.83,10.0,WNW,9.2,16.1,N/A,,Unknown,300,2012-12-30 03:35:00
10:55 PM,28.4,28.4,100,29.84,10.0,WNW,10.4,-,N/A,,Unknown,300,2012-12-30 03:55:00
11:15 PM,28.4,28.4,100,29.85,10.0,WNW,9.2,-,N/A,,Unknown,290,2012-12-30 04:15:00
11:35 PM,28.4,26.6,93,29.85,10.0,WNW,6.9,19.6,N/A,,Unknown,300,2012-12-30 04:35:00
11:55 PM,28.4,26.6,93,29.86,10.0,NW,12.7,17.3,N/A,,Unknown,310,2012-12-30 04:55:00